Time;durP1;ratioP1;P1;durP2;ratioP2;P2;SDS_P1;SDS_P2;PMS_P1;PMS_P2;Temp;Humidity;BMP_temperature;BMP_pressure;BME280_temperature;BME280_humidity;BME280_pressure;Samples;Min_cycle;Max_cycle;Signal;HPM_P1;HPM_P2
2021/10/05 00:01:34;;;;;;;25.17;18.15;;;10.20;99.90;;;;;;5074873;28;20521;-80
2021/10/05 00:03:59;;;;;;;26.65;17.55;;;10.20;99.90;;;;;;5088402;28;20024;-80
2021/10/05 00:06:25;;;;;;;29.60;20.13;;;10.20;99.90;;;;;;5073488;28;20078;-80
2021/10/05 00:08:51;;;;;;;24.02;18.48;;;10.20;99.90;;;;;;5089621;28;20025;-80
2021/10/05 00:11:17;;;;;;;25.40;17.95;;;10.20;99.90;;;;;;5093477;28;20422;-81
2021/10/05 00:13:43;;;;;;;27.45;18.75;;;10.20;99.90;;;;;;5074585;28;20413;-80
2021/10/05 00:16:09;;;;;;;28.42;19.27;;;10.20;99.90;;;;;;5073366;28;20024;-80
2021/10/05 00:18:35;;;;;;;24.15;18.45;;;10.20;99.90;;;;;;5073097;28;20028;-80
2021/10/05 00:21:02;;;;;;;24.63;19.15;;;10.20;99.90;;;;;;5073418;28;20019;-80
2021/10/05 00:23:27;;;;;;;25.85;18.90;;;10.30;99.90;;;;;;5074613;28;20508;-80
2021/10/05 00:25:53;;;;;;;28.88;18.38;;;10.30;99.90;;;;;;5074432;28;20029;-80
2021/10/05 00:28:19;;;;;;;28.40;20.42;;;10.20;99.90;;;;;;5072952;28;20029;-80
2021/10/05 00:30:44;;;;;;;25.73;17.27;;;10.30;99.90;;;;;;5074242;28;20071;-80
2021/10/05 00:33:10;;;;;;;24.30;17.63;;;10.20;99.90;;;;;;5072934;28;20029;-80
2021/10/05 00:35:36;;;;;;;27.45;19.85;;;10.30;99.90;;;;;;5072845;28;20020;-81
2021/10/05 00:38:02;;;;;;;30.70;19.70;;;10.30;99.90;;;;;;5074133;28;20060;-81
2021/10/05 00:40:28;;;;;;;30.00;19.83;;;10.30;99.90;;;;;;5072780;28;20077;-81
2021/10/05 00:42:53;;;;;;;22.02;16.70;;;10.30;99.90;;;;;;5074066;28;20024;-81
2021/10/05 00:45:19;;;;;;;23.63;17.30;;;10.30;99.90;;;;;;5073882;28;20111;-81
2021/10/05 00:47:45;;;;;;;26.00;17.02;;;10.20;99.90;;;;;;5072659;28;20025;-82
2021/10/05 00:50:14;;;;;;;23.00;17.27;;;10.20;99.90;;;;;;5072570;28;20553;-81
2021/10/05 00:52:41;;;;;;;22.45;16.75;;;10.10;99.90;;;;;;5075622;28;20024;-81
2021/10/05 00:55:07;;;;;;;29.98;17.83;;;10.10;99.90;;;;;;5109821;28;20028;-81
2021/10/05 00:57:32;;;;;;;21.35;16.20;;;10.10;99.90;;;;;;5093875;28;20093;-81
2021/10/05 00:59:58;;;;;;;20.05;15.25;;;10.10;99.90;;;;;;5108745;28;20549;-81
2021/10/05 01:02:24;;;;;;;25.02;18.65;;;10.00;99.90;;;;;;5109896;28;20020;-80
2021/10/05 01:04:49;;;;;;;28.23;19.92;;;10.10;99.90;;;;;;5093933;28;20100;-80
2021/10/05 01:07:17;;;;;;;31.95;22.65;;;10.10;99.90;;;;;;5109557;28;20070;-81
2021/10/05 01:09:44;;;;;;;33.75;22.83;;;10.10;99.90;;;;;;5109400;28;20043;-80
2021/10/05 01:12:11;;;;;;;32.30;21.13;;;10.20;99.90;;;;;;5093838;28;20393;-81
2021/10/05 01:14:37;;;;;;;30.23;20.60;;;10.10;99.90;;;;;;5093632;28;20492;-81
2021/10/05 01:17:05;;;;;;;31.08;22.30;;;10.20;99.90;;;;;;5109361;28;20028;-81
2021/10/05 01:19:31;;;;;;;35.17;24.70;;;10.20;99.90;;;;;;5092189;28;20024;-80
2021/10/05 01:21:57;;;;;;;38.97;24.77;;;10.20;99.90;;;;;;5109319;28;20034;-80
2021/10/05 01:24:23;;;;;;;44.03;26.48;;;10.20;99.90;;;;;;5088407;28;20082;-81
2021/10/05 01:26:53;;;;;;;29.33;21.27;;;10.20;99.90;;;;;;5091353;28;20035;-80
2021/10/05 01:29:20;;;;;;;36.92;24.60;;;10.20;99.90;;;;;;5093268;28;20032;-81
2021/10/05 01:31:48;;;;;;;40.30;25.90;;;10.30;99.90;;;;;;5093471;28;20020;-81
2021/10/05 01:34:15;;;;;;;26.65;17.45;;;10.30;99.90;;;;;;5108948;28;20035;-81
2021/10/05 01:36:41;;;;;;;16.90;12.98;;;10.20;99.90;;;;;;5093373;28;20466;-81
2021/10/05 01:39:19;;;;;;;18.58;13.77;;;10.10;99.90;;;;;;5108947;28;20028;-80
2021/10/05 01:41:45;;;;;;;19.27;14.27;;;10.00;99.90;;;;;;5108992;28;20020;-80
2021/10/05 01:44:11;;;;;;;22.52;15.13;;;10.00;99.90;;;;;;5108912;28;20530;-80
2021/10/05 01:46:37;;;;;;;38.92;24.38;;;9.90;99.90;;;;;;5108817;28;20056;-80
2021/10/05 01:49:03;;;;;;;36.25;22.77;;;10.00;99.90;;;;;;5093152;28;20466;-80
2021/10/05 01:51:28;;;;;;;42.20;25.42;;;10.00;99.90;;;;;;5108758;28;20024;-80
2021/10/05 01:53:54;;;;;;;41.30;26.55;;;10.10;99.90;;;;;;5078551;28;20032;-81
2021/10/05 01:56:19;;;;;;;45.45;27.70;;;10.10;99.90;;;;;;5071544;28;20111;-81
2021/10/05 01:58:46;;;;;;;40.25;26.02;;;10.20;99.90;;;;;;5071590;28;20107;-80
2021/10/05 02:01:12;;;;;;;37.83;23.10;;;10.20;99.90;;;;;;5074025;28;20367;-81
2021/10/05 02:03:38;;;;;;;33.65;21.92;;;10.20;99.90;;;;;;5071425;28;20116;-81
2021/10/05 02:06:04;;;;;;;35.03;20.60;;;10.30;99.90;;;;;;5071525;28;20028;-81
2021/10/05 02:08:29;;;;;;;42.78;23.23;;;10.30;99.90;;;;;;5078067;28;20028;-80
2021/10/05 02:10:55;;;;;;;36.42;23.95;;;10.30;99.90;;;;;;5108383;28;20060;-80
2021/10/05 02:13:21;;;;;;;27.50;18.35;;;10.30;99.90;;;;;;5092829;28;20028;-80
2021/10/05 02:15:47;;;;;;;34.35;22.55;;;10.30;99.90;;;;;;5092883;28;20024;-80
2021/10/05 02:18:12;;;;;;;28.75;20.02;;;10.30;99.90;;;;;;5108565;28;20035;-80
2021/10/05 02:20:38;;;;;;;36.45;24.27;;;10.30;99.90;;;;;;5108476;28;20020;-80
2021/10/05 02:23:04;;;;;;;28.90;19.20;;;10.30;99.90;;;;;;5108502;28;20016;-80
2021/10/05 02:25:30;;;;;;;28.80;21.88;;;10.30;99.90;;;;;;5108222;28;20020;-80
2021/10/05 02:27:55;;;;;;;39.70;26.17;;;10.30;99.90;;;;;;5091342;28;20404;-80
2021/10/05 02:30:21;;;;;;;45.72;29.52;;;10.30;99.90;;;;;;5092635;28;20040;-80
2021/10/05 02:32:47;;;;;;;40.15;27.98;;;10.40;99.90;;;;;;5091468;28;20388;-80
2021/10/05 02:35:13;;;;;;;39.47;26.85;;;10.40;99.90;;;;;;5091389;28;20032;-80
2021/10/05 02:37:39;;;;;;;50.53;30.20;;;10.40;99.90;;;;;;5091332;28;20070;-80
2021/10/05 02:40:08;;;;;;;51.05;30.48;;;10.50;99.90;;;;;;5087720;28;20028;-81
2021/10/05 02:42:34;;;;;;;50.75;31.25;;;10.50;99.90;;;;;;5070958;28;20035;-81
2021/10/05 02:45:01;;;;;;;53.95;33.97;;;10.60;99.90;;;;;;5071162;28;20437;-80
2021/10/05 02:47:26;;;;;;;51.03;33.47;;;10.70;99.90;;;;;;5077879;28;20024;-80
2021/10/05 02:49:52;;;;;;;50.53;31.38;;;10.70;99.90;;;;;;5108076;28;20566;-80
2021/10/05 02:52:21;;;;;;;51.17;33.28;;;10.80;99.90;;;;;;5092490;28;20070;-81
2021/10/05 02:54:48;;;;;;;49.25;31.00;;;10.90;99.90;;;;;;5092407;28;20520;-80
2021/10/05 02:57:15;;;;;;;46.45;31.35;;;10.90;99.90;;;;;;5108223;28;20074;-80
2021/10/05 02:59:41;;;;;;;45.13;30.98;;;10.90;99.90;;;;;;5108102;28;20036;-80
2021/10/05 03:02:07;;;;;;;51.47;33.85;;;11.00;99.90;;;;;;5092553;28;20031;-80
2021/10/05 03:04:33;;;;;;;49.35;30.92;;;11.10;99.90;;;;;;5108059;28;20111;-80
2021/10/05 03:06:59;;;;;;;48.65;31.50;;;11.10;99.90;;;;;;5092336;28;20052;-80
2021/10/05 03:09:24;;;;;;;51.65;29.80;;;11.20;99.90;;;;;;5094667;28;20137;-80
2021/10/05 03:11:50;;;;;;;47.10;29.40;;;11.20;99.90;;;;;;5072178;28;20029;-80
2021/10/05 03:14:16;;;;;;;53.00;30.63;;;11.20;99.90;;;;;;5070680;28;20052;-80
2021/10/05 03:16:41;;;;;;;43.40;29.23;;;11.30;99.90;;;;;;5072091;28;20025;-80
2021/10/05 03:19:07;;;;;;;44.35;28.98;;;11.30;99.90;;;;;;5077285;28;20027;-80
2021/10/05 03:21:33;;;;;;;44.67;28.02;;;11.30;99.90;;;;;;5092270;28;20043;-81
2021/10/05 03:23:59;;;;;;;44.65;28.48;;;11.40;99.90;;;;;;5110532;28;20020;-80
2021/10/05 03:26:25;;;;;;;46.85;29.35;;;11.40;99.90;;;;;;5111451;28;20028;-81
2021/10/05 03:28:50;;;;;;;39.53;27.48;;;11.40;99.90;;;;;;5095621;28;20066;-81
2021/10/05 03:31:16;;;;;;;43.85;27.75;;;11.40;99.90;;;;;;5111420;28;20022;-81
2021/10/05 03:33:44;;;;;;;43.45;27.20;;;11.50;99.90;;;;;;5111385;28;20020;-81
2021/10/05 03:36:11;;;;;;;44.85;26.55;;;11.50;99.90;;;;;;5111401;28;20012;-81
2021/10/05 03:38:38;;;;;;;40.05;25.75;;;11.50;99.90;;;;;;5101571;28;20025;-81
2021/10/05 03:41:05;;;;;;;36.42;24.13;;;11.50;99.90;;;;;;5075382;28;20153;-81
2021/10/05 03:43:31;;;;;;;40.75;25.50;;;11.50;99.90;;;;;;5073859;28;20067;-81
2021/10/05 03:45:57;;;;;;;34.92;24.17;;;11.50;99.90;;;;;;5073995;28;20044;-81
2021/10/05 03:48:23;;;;;;;41.80;26.50;;;11.50;99.90;;;;;;5073789;28;20091;-80
2021/10/05 03:50:49;;;;;;;40.03;26.80;;;11.60;99.90;;;;;;5073810;28;20024;-81
2021/10/05 03:53:19;;;;;;;35.67;25.33;;;11.50;99.90;;;;;;5073713;28;20025;-80
2021/10/05 03:55:46;;;;;;;35.97;25.52;;;11.50;99.90;;;;;;5073789;28;20025;-81
2021/10/05 03:58:13;;;;;;;31.02;23.02;;;11.50;99.90;;;;;;5074908;28;20485;-80
2021/10/05 04:00:38;;;;;;;31.92;22.58;;;11.40;99.90;;;;;;5074932;28;20029;-80
2021/10/05 04:03:04;;;;;;;31.85;21.88;;;11.40;99.90;;;;;;5073640;28;20027;-80
2021/10/05 04:05:30;;;;;;;31.58;21.65;;;11.40;99.90;;;;;;5073541;28;20028;-80
2021/10/05 04:07:55;;;;;;;35.03;22.98;;;11.30;99.90;;;;;;5074818;28;20402;-80
2021/10/05 04:10:21;;;;;;;34.60;22.73;;;11.30;99.90;;;;;;5073321;28;20035;-80
2021/10/05 04:12:47;;;;;;;34.22;23.20;;;11.30;99.90;;;;;;5073416;28;20021;-81
2021/10/05 04:15:13;;;;;;;31.88;21.98;;;11.30;99.90;;;;;;5074697;28;20078;-81
2021/10/05 04:17:38;;;;;;;32.60;20.95;;;11.20;99.90;;;;;;5073260;28;20489;-80
2021/10/05 04:20:05;;;;;;;32.55;23.02;;;11.20;99.90;;;;;;5073149;28;20028;-80
2021/10/05 04:22:31;;;;;;;32.03;21.38;;;11.20;99.90;;;;;;5074545;28;20070;-81
2021/10/05 04:24:57;;;;;;;30.75;20.02;;;11.20;99.90;;;;;;5073177;28;20024;-80
2021/10/05 04:27:22;;;;;;;29.25;21.15;;;11.20;99.90;;;;;;5074407;28;20462;-80
2021/10/05 04:29:48;;;;;;;30.73;19.10;;;11.20;99.90;;;;;;5072968;28;20119;-81
2021/10/05 04:32:14;;;;;;;34.45;20.95;;;11.20;99.90;;;;;;5073071;28;20020;-81
2021/10/05 04:34:39;;;;;;;28.70;20.38;;;11.10;99.90;;;;;;5072814;28;20035;-80
2021/10/05 04:37:05;;;;;;;34.60;20.85;;;11.20;99.90;;;;;;5083007;28;20025;-80
2021/10/05 04:39:32;;;;;;;27.45;20.02;;;11.20;99.90;;;;;;5079066;28;20031;-80
2021/10/05 04:41:58;;;;;;;29.17;20.10;;;11.10;99.90;;;;;;5072758;28;20028;-79
2021/10/05 04:44:23;;;;;;;32.30;20.70;;;11.10;99.90;;;;;;5068989;28;20476;-80
2021/10/05 04:46:49;;;;;;;29.30;19.55;;;11.10;99.90;;;;;;5073370;28;20052;-81
2021/10/05 04:49:15;;;;;;;26.65;18.95;;;11.10;99.90;;;;;;5071610;28;20043;-80
2021/10/05 04:51:41;;;;;;;31.98;21.63;;;11.10;99.90;;;;;;5072841;28;20494;-80
2021/10/05 04:54:07;;;;;;;31.02;20.55;;;11.10;99.90;;;;;;5071863;28;20115;-80
2021/10/05 04:56:32;;;;;;;29.83;20.17;;;11.20;99.90;;;;;;5072795;28;20034;-82
2021/10/05 04:58:58;;;;;;;26.90;19.52;;;11.10;99.90;;;;;;5081664;28;20373;-80
2021/10/05 05:01:24;;;;;;;29.83;18.27;;;11.10;99.90;;;;;;5083630;28;20013;-81
2021/10/05 05:03:49;;;;;;;25.48;16.55;;;11.20;99.90;;;;;;5074883;28;20039;-80
2021/10/05 05:06:15;;;;;;;22.90;17.20;;;11.20;99.90;;;;;;5073766;28;20070;-81
2021/10/05 05:08:40;;;;;;;26.75;17.23;;;11.30;99.90;;;;;;5072195;28;20025;-81
2021/10/05 05:11:06;;;;;;;25.38;16.30;;;11.30;99.90;;;;;;5072206;28;20112;-81
2021/10/05 05:13:32;;;;;;;25.38;16.92;;;11.30;99.90;;;;;;5073255;28;20024;-80
2021/10/05 05:15:57;;;;;;;26.95;17.50;;;11.30;99.90;;;;;;5071868;28;20028;-80
2021/10/05 05:18:23;;;;;;;23.38;16.92;;;11.40;99.90;;;;;;5084941;28;20024;-81
2021/10/05 05:20:49;;;;;;;24.38;16.40;;;11.40;99.90;;;;;;5090934;28;20109;-81
2021/10/05 05:23:15;;;;;;;26.42;17.63;;;11.40;99.90;;;;;;5089102;28;20028;-82
2021/10/05 05:25:41;;;;;;;27.80;18.23;;;11.40;99.90;;;;;;5076104;28;20052;-82
2021/10/05 05:28:10;;;;;;;22.83;16.88;;;11.50;99.90;;;;;;5069555;28;20059;-81
2021/10/05 05:30:38;;;;;;;23.85;17.60;;;11.50;99.90;;;;;;5070386;28;20066;-81
2021/10/05 05:33:04;;;;;;;26.40;16.65;;;11.50;99.90;;;;;;5070114;28;20099;-82
2021/10/05 05:35:30;;;;;;;23.05;15.55;;;11.50;99.90;;;;;;5069757;28;20117;-82
2021/10/05 05:37:56;;;;;;;21.80;16.52;;;11.60;99.90;;;;;;5071012;28;20564;-82
2021/10/05 05:40:21;;;;;;;22.67;16.67;;;11.60;99.90;;;;;;5069042;28;20032;-81
2021/10/05 05:42:47;;;;;;;25.92;16.77;;;11.70;99.90;;;;;;5071238;28;20067;-84
2021/10/05 05:45:12;;;;;;;28.33;16.30;;;11.70;99.90;;;;;;5068625;28;20032;-82
2021/10/05 05:47:38;;;;;;;23.70;16.92;;;11.80;99.90;;;;;;5075134;28;20443;-84
2021/10/05 05:50:06;;;;;;;22.67;16.13;;;11.90;99.90;;;;;;5108777;28;20485;-84
2021/10/05 05:52:33;;;;;;;26.85;17.48;;;12.00;99.90;;;;;;5108392;28;20505;-85
2021/10/05 05:54:59;;;;;;;27.85;16.77;;;12.10;99.90;;;;;;5103472;28;20092;-84
2021/10/05 05:57:25;;;;;;;28.33;18.70;;;12.20;99.90;;;;;;5078313;28;20048;-84
2021/10/05 05:59:51;;;;;;;24.70;17.13;;;12.40;99.90;;;;;;5081509;28;20096;-84
2021/10/05 06:02:16;;;;;;;25.55;18.45;;;12.50;99.90;;;;;;5083626;28;20024;-84
2021/10/05 06:04:42;;;;;;;30.80;18.88;;;12.60;99.90;;;;;;5079015;28;20083;-84
2021/10/05 06:07:08;;;;;;;27.15;17.48;;;12.70;99.90;;;;;;5082365;28;20016;-84
2021/10/05 06:09:35;;;;;;;25.40;19.23;;;12.90;99.90;;;;;;5081769;28;20043;-84
2021/10/05 06:12:04;;;;;;;29.67;19.00;;;13.00;99.90;;;;;;5080839;28;20107;-84
2021/10/05 06:14:29;;;;;;;26.08;17.05;;;13.10;99.90;;;;;;5081228;28;20035;-84
2021/10/05 06:16:57;;;;;;;25.13;17.65;;;13.20;99.90;;;;;;5083090;28;20032;-84
2021/10/05 06:19:23;;;;;;;26.90;19.40;;;13.30;99.90;;;;;;5078722;28;20025;-85
2021/10/05 06:21:49;;;;;;;27.98;18.90;;;13.40;99.90;;;;;;5080004;28;20020;-84
2021/10/05 06:24:15;;;;;;;26.00;16.67;;;13.60;99.90;;;;;;5083256;28;20030;-84
2021/10/05 06:26:41;;;;;;;24.88;16.27;;;13.70;99.90;;;;;;5082333;28;20452;-84
2021/10/05 06:29:07;;;;;;;24.75;17.23;;;13.90;99.90;;;;;;5081145;28;20055;-84
2021/10/05 06:31:33;;;;;;;22.48;15.98;;;14.10;99.90;;;;;;5081105;28;20397;-83
2021/10/05 06:33:58;;;;;;;32.40;18.40;;;14.30;99.90;;;;;;5077211;28;20470;-84
2021/10/05 06:36:24;;;;;;;24.02;16.00;;;14.40;99.90;;;;;;5085356;28;20048;-84
2021/10/05 06:38:50;;;;;;;25.73;17.15;;;14.50;99.90;;;;;;5083281;28;20039;-84
2021/10/05 06:41:15;;;;;;;23.13;14.93;;;14.60;99.90;;;;;;5079197;28;20024;-83
2021/10/05 06:43:41;;;;;;;20.27;15.55;;;14.70;99.90;;;;;;5082167;28;20016;-84
2021/10/05 06:46:07;;;;;;;24.35;16.58;;;14.90;99.90;;;;;;5081890;28;20497;-84
2021/10/05 06:48:34;;;;;;;26.52;15.90;;;14.90;99.90;;;;;;5082344;28;20040;-84
2021/10/05 06:51:00;;;;;;;18.92;14.57;;;15.00;99.90;;;;;;5083627;28;20040;-84
2021/10/05 06:53:27;;;;;;;21.23;15.15;;;15.10;99.90;;;;;;5091154;28;20073;-84
2021/10/05 06:55:53;;;;;;;20.20;14.82;;;15.30;99.90;;;;;;5091283;28;20023;-84
2021/10/05 06:58:19;;;;;;;21.63;15.10;;;15.40;99.90;;;;;;5094557;28;20028;-84
2021/10/05 07:00:45;;;;;;;22.80;15.23;;;15.50;99.90;;;;;;5096351;28;20074;-84
2021/10/05 07:03:10;;;;;;;21.30;15.60;;;15.50;99.90;;;;;;5095032;28;20074;-84
2021/10/05 07:05:36;;;;;;;22.58;15.32;;;15.60;99.90;;;;;;5094907;28;20035;-85
2021/10/05 07:08:08;;;;;;;18.38;14.98;;;15.70;99.90;;;;;;5090992;28;20547;-85
2021/10/05 07:10:35;;;;;;;23.10;15.13;;;15.80;99.90;;;;;;5094830;28;20147;-84
2021/10/05 07:13:01;;;;;;;16.73;13.85;;;15.80;99.90;;;;;;5096130;28;20044;-85
2021/10/05 07:15:27;;;;;;;19.98;14.15;;;15.90;99.90;;;;;;5094593;28;20474;-85
2021/10/05 07:17:54;;;;;;;17.85;13.77;;;16.00;99.90;;;;;;5095207;28;20036;-85
2021/10/05 07:20:20;;;;;;;18.88;14.40;;;16.10;99.90;;;;;;5111604;28;20027;-85
2021/10/05 07:22:46;;;;;;;21.83;14.82;;;16.20;99.90;;;;;;5111329;28;20024;-85
2021/10/05 07:25:12;;;;;;;19.40;13.10;;;16.30;99.90;;;;;;5091283;28;20441;-85
2021/10/05 07:27:37;;;;;;;16.55;12.43;;;16.50;99.90;;;;;;5081675;28;20051;-84
2021/10/05 07:30:05;;;;;;;16.90;12.40;;;16.50;99.90;;;;;;5095935;28;20042;-84
2021/10/05 07:32:32;;;;;;;16.48;11.30;;;16.50;99.90;;;;;;5094481;28;20111;-85
2021/10/05 07:34:58;;;;;;;18.25;11.07;;;16.60;99.90;;;;;;5095676;28;20469;-84
2021/10/05 07:37:23;;;;;;;15.82;12.18;;;16.70;99.90;;;;;;5094376;28;20028;-85
2021/10/05 07:39:49;;;;;;;16.45;12.52;;;16.80;99.90;;;;;;5094281;28;20204;-85
2021/10/05 07:42:15;;;;;;;15.30;11.52;;;16.90;99.90;;;;;;5092395;28;20504;-85
2021/10/05 07:44:41;;;;;;;15.93;11.55;;;17.00;99.90;;;;;;5081930;28;20484;-85
2021/10/05 07:47:07;;;;;;;18.45;11.20;;;17.10;99.90;;;;;;5083728;28;20100;-84
2021/10/05 07:49:33;;;;;;;12.40;10.43;;;17.10;99.90;;;;;;5077922;28;20028;-84
2021/10/05 07:51:59;;;;;;;13.23;10.77;;;17.10;99.90;;;;;;5073909;28;20021;-84
2021/10/05 07:54:25;;;;;;;14.65;11.02;;;17.10;99.90;;;;;;5076397;28;20029;-84
2021/10/05 07:56:51;;;;;;;35.50;12.52;;;17.20;99.90;;;;;;5083715;28;20482;-85
2021/10/05 07:59:17;;;;;;;15.38;11.68;;;17.30;99.90;;;;;;5083532;28;20028;-84
2021/10/05 08:01:49;;;;;;;14.70;11.15;;;17.40;99.90;;;;;;5093897;28;20012;-84
2021/10/05 08:04:15;;;;;;;;;;;17.50;99.90;;;;;;5094287;28;20527;-84
2021/10/05 08:06:41;;;;;;;14.35;10.73;;;17.60;99.90;;;;;;5094696;28;19935;-84
2021/10/05 08:09:06;;;;;;;13.00;10.23;;;17.80;99.90;;;;;;5091002;28;20082;-84
2021/10/05 08:11:32;;;;;;;12.52;10.27;;;17.80;99.90;;;;;;5093343;28;20047;-84
2021/10/05 08:13:58;;;;;;;15.05;9.52;;;17.90;99.90;;;;;;5092023;28;20055;-84
2021/10/05 08:16:30;;;;;;;12.35;10.23;;;18.00;99.90;;;;;;5093587;28;20390;-84
2021/10/05 08:18:57;;;;;;;14.52;10.50;;;18.10;99.90;;;;;;5092328;28;20046;-84
2021/10/05 08:21:22;;;;;;;15.88;11.57;;;18.10;99.90;;;;;;5092587;28;20082;-84
2021/10/05 08:23:51;;;;;;;11.35;9.20;;;18.20;99.90;;;;;;5092410;28;20075;-84
2021/10/05 08:26:17;;;;;;;12.98;9.35;;;18.40;99.90;;;;;;5093402;28;20016;-84
2021/10/05 08:28:43;;;;;;;12.50;8.82;;;18.60;99.90;;;;;;5094483;28;20457;-84
2021/10/05 08:31:08;;;;;;;12.68;9.45;;;18.70;99.90;;;;;;5093268;28;20016;-84
2021/10/05 08:33:34;;;;;;;10.68;9.05;;;18.80;99.90;;;;;;5093109;28;20032;-84
2021/10/05 08:36:00;;;;;;;17.23;10.43;;;19.00;99.90;;;;;;5093595;28;20388;-84
2021/10/05 08:38:26;;;;;;;12.27;9.43;;;19.00;99.90;;;;;;5093098;28;20020;-84
2021/10/05 08:40:52;;;;;;;16.73;9.75;;;19.10;99.90;;;;;;5094436;28;20081;-84
2021/10/05 08:43:21;;;;;;;14.25;9.65;;;19.20;99.90;;;;;;5080965;28;20135;-84
2021/10/05 08:45:47;;;;;;;11.43;9.45;;;19.30;99.90;;;;;;5084152;28;20492;-84
2021/10/05 08:48:13;;;;;;;13.55;9.75;;;19.30;99.90;;;;;;5093017;28;20106;-84
2021/10/05 08:50:39;;;;;;;14.35;10.30;;;19.40;99.90;;;;;;5094119;28;20111;-84
2021/10/05 08:53:04;;;;;;;14.18;10.48;;;19.40;99.90;;;;;;5094188;28;20031;-85
2021/10/05 08:55:30;;;;;;;12.02;9.73;;;19.40;99.90;;;;;;5092765;28;20031;-84
2021/10/05 08:57:56;;;;;;;15.48;12.82;;;19.50;99.90;;;;;;5092671;28;20066;-85
2021/10/05 09:00:23;;;;;;;18.02;10.60;;;19.60;99.90;;;;;;5091877;28;20377;-84
2021/10/05 09:02:50;;;;;;;11.88;9.98;;;19.80;99.90;;;;;;5094042;28;20409;-84
2021/10/05 09:05:17;;;;;;;16.35;11.35;;;19.90;99.90;;;;;;5092519;28;20016;-85
2021/10/05 09:07:45;;;;;;;22.17;14.68;;;20.10;97.50;;;;;;5093816;28;20024;-85
2021/10/05 09:10:14;;;;;;;22.85;13.80;;;20.10;97.40;;;;;;5109393;28;20031;-85
2021/10/05 09:12:40;;;;;;;18.17;11.68;;;20.30;95.20;;;;;;5092338;28;20020;-84
2021/10/05 09:15:09;;;;;;;15.65;10.88;;;20.30;93.30;;;;;;5094038;28;20028;-85
2021/10/05 09:17:36;;;;;;;15.60;10.88;;;20.40;96.40;;;;;;5109354;28;20028;-85
2021/10/05 09:20:13;;;;;;;14.73;9.50;;;20.60;95.00;;;;;;5080373;28;20021;-82
2021/10/05 09:22:38;;;;;;;15.57;9.98;;;20.60;92.70;;;;;;5072314;28;20027;-82
2021/10/05 09:25:10;;;;;;;15.00;10.88;;;20.60;92.90;;;;;;5072356;28;20028;-82
2021/10/05 09:27:47;;;;;;;16.40;10.35;;;20.70;93.40;;;;;;5076382;28;20032;-82
2021/10/05 09:30:19;;;;;;;12.52;9.90;;;20.70;93.00;;;;;;5072228;28;20162;-82
2021/10/05 09:32:58;;;;;;;20.35;11.32;;;20.70;90.00;;;;;;5073169;28;20024;-82
2021/10/05 09:35:24;;;;;;;12.18;9.25;;;20.80;93.20;;;;;;5073152;28;20025;-82
2021/10/05 09:37:50;;;;;;;11.75;9.93;;;20.90;90.70;;;;;;5072087;28;20020;-82
2021/10/05 09:40:16;;;;;;;11.95;7.78;;;20.90;91.10;;;;;;5073313;28;20108;-82
2021/10/05 09:42:44;;;;;;;12.07;9.07;;;20.90;88.70;;;;;;5073056;28;20474;-82
2021/10/05 09:45:12;;;;;;;11.80;9.02;;;20.90;87.30;;;;;;5071694;28;20052;-82
2021/10/05 09:47:43;;;;;;;10.98;8.32;;;20.90;88.70;;;;;;5074568;28;20024;-82
2021/10/05 09:50:24;;;;;;;10.73;8.05;;;20.90;87.50;;;;;;5093133;28;20378;-82
2021/10/05 09:52:58;;;;;;;8.88;7.95;;;20.90;86.60;;;;;;5093203;28;20481;-82
2021/10/05 09:55:27;;;;;;;11.20;7.38;;;21.00;88.20;;;;;;5091709;28;20027;-82
2021/10/05 09:57:53;;;;;;;10.30;7.95;;;21.10;82.60;;;;;;5091810;28;20105;-82
2021/10/05 10:00:22;;;;;;;11.40;7.93;;;21.10;82.90;;;;;;5092983;28;20431;-82
2021/10/05 10:02:49;;;;;;;11.93;8.23;;;21.20;85.40;;;;;;5093015;28;20024;-82
2021/10/05 10:05:20;;;;;;;12.07;8.40;;;21.20;81.60;;;;;;5092899;28;20021;-82
2021/10/05 10:07:52;;;;;;;10.35;7.82;;;21.30;85.50;;;;;;5091667;28;20028;-82
2021/10/05 10:10:20;;;;;;;10.88;8.18;;;21.40;84.00;;;;;;5091734;28;20043;-82
2021/10/05 10:12:55;;;;;;;13.13;8.77;;;21.40;83.20;;;;;;5091781;28;20031;-82
2021/10/05 10:15:29;;;;;;;10.02;7.90;;;21.40;83.20;;;;;;5092945;28;20016;-82
2021/10/05 10:18:11;;;;;;;15.02;8.90;;;21.30;81.50;;;;;;5085854;28;20052;-82
2021/10/05 10:20:39;;;;;;;8.70;7.80;;;21.30;83.00;;;;;;5074754;28;20455;-82
2021/10/05 10:23:26;;;;;;;11.48;7.82;;;21.30;80.00;;;;;;5073372;28;20032;-82
2021/10/05 10:25:57;;;;;;;17.02;8.45;;;21.40;81.30;;;;;;5071589;28;20432;-82
2021/10/05 10:28:29;;;;;;;11.57;7.82;;;21.40;79.30;;;;;;5071525;28;20028;-82
2021/10/05 10:30:58;;;;;;;10.85;8.45;;;21.40;80.20;;;;;;5071195;28;20043;-82
2021/10/05 10:33:28;;;;;;;12.35;7.93;;;21.40;81.80;;;;;;5076534;28;20063;-82
2021/10/05 10:35:58;;;;;;;14.60;8.57;;;21.40;81.30;;;;;;5093964;28;20363;-82
2021/10/05 10:38:30;;;;;;;9.90;8.40;;;21.40;81.00;;;;;;5095658;28;20016;-82
2021/10/05 10:40:56;;;;;;;11.67;7.37;;;21.40;79.70;;;;;;5095924;28;20028;-82
2021/10/05 10:43:25;;;;;;;14.70;7.85;;;21.50;80.80;;;;;;5085612;28;20286;-83
2021/10/05 10:46:02;;;;;;;6.72;6.00;;;21.70;80.40;;;;;;5076492;28;20021;-82
2021/10/05 10:48:36;;;;;;;9.07;7.00;;;21.70;73.40;;;;;;5076245;28;20429;-82
2021/10/05 10:51:27;;;;;;;13.80;7.03;;;21.80;74.20;;;;;;5076401;28;20036;-82
2021/10/05 10:53:54;;;;;;;9.45;6.28;;;21.80;72.40;;;;;;5075107;28;20044;-82
2021/10/05 10:56:36;;;;;;;9.57;6.97;;;21.90;73.50;;;;;;5084365;28;20016;-82
2021/10/05 10:59:03;;;;;;;;;;;22.00;73.30;;;;;;5094743;28;20081;-82
2021/10/05 11:01:41;;;;;;;8.27;6.90;;;22.10;73.00;;;;;;5095147;28;19904;-82
2021/10/05 11:04:09;;;;;;;10.65;7.03;;;22.00;71.80;;;;;;5091686;28;20551;-82
2021/10/05 11:06:35;;;;;;;9.93;8.27;;;22.00;74.20;;;;;;5093693;28;20069;-85
2021/10/05 11:09:03;;;;;;;11.20;7.50;;;21.90;77.20;;;;;;5094777;28;20059;-82
2021/10/05 11:12:00;;;;;;;13.27;8.88;;;21.80;76.60;;;;;;5096078;28;20055;-82
2021/10/05 11:14:34;;;;;;;11.07;7.53;;;21.80;78.70;;;;;;5078503;28;20507;-82
2021/10/05 11:17:02;;;;;;;10.55;7.68;;;21.80;77.70;;;;;;5082824;28;20020;-82
2021/10/05 11:19:30;;;;;;;10.80;8.40;;;21.80;79.00;;;;;;5075618;28;20067;-82
2021/10/05 11:21:58;;;;;;;8.43;7.53;;;21.80;76.80;;;;;;5074631;28;20423;-82
2021/10/05 11:24:43;;;;;;;8.90;7.70;;;21.70;78.60;;;;;;5075792;28;20032;-82
2021/10/05 11:27:13;;;;;;;13.80;8.57;;;21.80;78.70;;;;;;5074357;28;20493;-82
2021/10/05 11:29:39;;;;;;;11.40;8.07;;;21.70;76.80;;;;;;5074274;28;20040;-82
2021/10/05 11:32:06;;;;;;;14.05;8.02;;;21.70;78.90;;;;;;5074417;28;20383;-82
2021/10/05 11:34:36;;;;;;;10.20;9.05;;;21.60;77.30;;;;;;5075344;28;20028;-82
2021/10/05 11:37:04;;;;;;;10.25;8.65;;;21.70;81.60;;;;;;5075465;28;20104;-82
2021/10/05 11:39:30;;;;;;;10.05;7.63;;;21.80;80.30;;;;;;5078415;28;20112;-82
2021/10/05 11:42:00;;;;;;;10.43;6.97;;;21.80;75.70;;;;;;5082802;28;20025;-82
2021/10/05 11:44:27;;;;;;;7.55;6.80;;;22.00;74.50;;;;;;5086227;28;20126;-82
2021/10/05 11:46:54;;;;;;;9.45;6.70;;;22.00;73.20;;;;;;5091965;28;20028;-82
2021/10/05 11:49:21;;;;;;;12.35;7.28;;;22.10;71.90;;;;;;5076048;28;20032;-82
2021/10/05 11:51:48;;;;;;;10.43;7.70;;;22.20;74.40;;;;;;5095529;28;20020;-82
2021/10/05 11:54:22;;;;;;;9.63;6.85;;;22.20;75.50;;;;;;5095542;28;20465;-82
2021/10/05 11:56:48;;;;;;;9.38;6.82;;;22.20;72.50;;;;;;5089464;28;20085;-82
2021/10/05 11:59:26;;;;;;;11.18;7.55;;;22.20;70.20;;;;;;5081005;28;20036;-82
2021/10/05 12:01:57;;;;;;;9.68;7.05;;;22.20;74.00;;;;;;5074098;28;20037;-82
2021/10/05 12:04:24;;;;;;;11.80;7.88;;;22.30;73.90;;;;;;5073979;28;20036;-82
2021/10/05 12:06:53;;;;;;;9.63;7.07;;;22.30;74.40;;;;;;5075116;28;20550;-82
2021/10/05 12:09:26;;;;;;;12.27;7.78;;;22.20;73.40;;;;;;5089657;28;20028;-82
2021/10/05 12:11:58;;;;;;;10.77;8.05;;;22.20;72.80;;;;;;5073723;28;20367;-82
2021/10/05 12:14:30;;;;;;;9.95;8.10;;;22.30;76.20;;;;;;5073686;28;20025;-82
2021/10/05 12:17:00;;;;;;;14.80;8.43;;;22.30;76.30;;;;;;5073432;28;20484;-82
2021/10/05 12:19:37;;;;;;;12.00;8.32;;;22.30;75.70;;;;;;5074441;28;20024;-82
2021/10/05 12:22:06;;;;;;;10.20;8.88;;;22.20;75.50;;;;;;5074573;28;20024;-82
2021/10/05 12:24:44;;;;;;;13.77;8.57;;;22.20;78.40;;;;;;5074193;28;20020;-82
2021/10/05 12:27:14;;;;;;;11.13;8.18;;;22.30;78.10;;;;;;5073574;28;20422;-82
2021/10/05 12:30:12;;;;;;;11.15;8.60;;;22.30;79.40;;;;;;5072910;28;20413;-82
2021/10/05 12:32:40;;;;;;;11.13;8.30;;;22.30;79.30;;;;;;5072945;28;20397;-82